sensor_id;sensor_type;location;lat;lon;timestamp;pressure;altitude;pressure_sealevel;temperature;humidity
76126;BME280;65174;48.138;21.002;2023-09-19T00:00:10;99078.41;;;18.59;80.97
76126;BME280;65174;48.138;21.002;2023-09-19T00:03:15;99068.91;;;18.58;81.11
76126;BME280;65174;48.138;21.002;2023-09-19T00:06:17;99080.53;;;18.56;80.92
76126;BME280;65174;48.138;21.002;2023-09-19T00:09:19;99070.88;;;18.56;82.00
76126;BME280;65174;48.138;21.002;2023-09-19T00:12:21;99070.69;;;18.50;83.06
76126;BME280;65174;48.138;21.002;2023-09-19T00:15:23;99070.03;;;18.48;83.04
76126;BME280;65174;48.138;21.002;2023-09-19T00:18:25;99066.44;;;18.49;83.07
76126;BME280;65174;48.138;21.002;2023-09-19T00:21:32;99064.97;;;18.46;83.85
76126;BME280;65174;48.138;21.002;2023-09-19T00:24:34;99072.41;;;18.41;86.83
76126;BME280;65174;48.138;21.002;2023-09-19T00:27:37;99072.84;;;18.28;87.35
76126;BME280;65174;48.138;21.002;2023-09-19T00:30:45;99069.06;;;18.23;88.94
76126;BME280;65174;48.138;21.002;2023-09-19T00:33:52;99065.94;;;18.19;88.75
76126;BME280;65174;48.138;21.002;2023-09-19T00:36:55;99072.28;;;18.17;88.60
76126;BME280;65174;48.138;21.002;2023-09-19T00:39:56;99066.53;;;18.05;90.81
76126;BME280;65174;48.138;21.002;2023-09-19T00:42:58;99055.09;;;17.81;95.05
76126;BME280;65174;48.138;21.002;2023-09-19T00:46:02;99061.31;;;17.62;97.34
76126;BME280;65174;48.138;21.002;2023-09-19T00:49:07;99076.16;;;17.62;99.54
76126;BME280;65174;48.138;21.002;2023-09-19T00:52:12;99093.44;;;17.63;99.83
76126;BME280;65174;48.138;21.002;2023-09-19T00:55:14;99086.84;;;17.51;100.00
76126;BME280;65174;48.138;21.002;2023-09-19T00:58:18;99076.31;;;17.42;100.00
76126;BME280;65174;48.138;21.002;2023-09-19T01:01:21;99052.56;;;17.28;100.00
76126;BME280;65174;48.138;21.002;2023-09-19T01:04:23;99065.44;;;17.29;100.00
76126;BME280;65174;48.138;21.002;2023-09-19T01:07:26;99061.59;;;17.24;100.00
76126;BME280;65174;48.138;21.002;2023-09-19T01:10:28;99061.47;;;17.25;100.00
76126;BME280;65174;48.138;21.002;2023-09-19T01:14:06;99049.84;;;17.20;100.00
76126;BME280;65174;48.138;21.002;2023-09-19T01:17:30;99045.38;;;17.12;100.00
76126;BME280;65174;48.138;21.002;2023-09-19T01:27:53;99064.31;;;17.14;100.00
76126;BME280;65174;48.138;21.002;2023-09-19T01:31:00;99072.28;;;17.13;100.00
76126;BME280;65174;48.138;21.002;2023-09-19T01:34:04;99072.78;;;17.16;100.00
76126;BME280;65174;48.138;21.002;2023-09-19T01:37:08;99072.28;;;17.13;100.00
76126;BME280;65174;48.138;21.002;2023-09-19T01:40:12;99066.41;;;17.11;100.00
76126;BME280;65174;48.138;21.002;2023-09-19T01:43:27;99068.63;;;17.06;100.00
76126;BME280;65174;48.138;21.002;2023-09-19T01:46:39;99068.34;;;17.09;100.00
76126;BME280;65174;48.138;21.002;2023-09-19T01:49:52;99061.19;;;17.11;100.00
76126;BME280;65174;48.138;21.002;2023-09-19T01:53:06;99058.13;;;17.15;100.00
76126;BME280;65174;48.138;21.002;2023-09-19T01:56:16;99051.03;;;17.08;100.00
76126;BME280;65174;48.138;21.002;2023-09-19T01:59:25;99060.50;;;17.09;100.00
76126;BME280;65174;48.138;21.002;2023-09-19T02:02:30;99054.09;;;17.03;100.00
76126;BME280;65174;48.138;21.002;2023-09-19T02:05:32;99046.81;;;17.07;100.00
76126;BME280;65174;48.138;21.002;2023-09-19T02:08:35;99038.59;;;17.02;100.00
76126;BME280;65174;48.138;21.002;2023-09-19T02:11:37;99042.63;;;16.96;100.00
76126;BME280;65174;48.138;21.002;2023-09-19T02:14:39;99038.22;;;16.97;100.00
76126;BME280;65174;48.138;21.002;2023-09-19T02:17:42;99041.28;;;16.92;100.00
76126;BME280;65174;48.138;21.002;2023-09-19T02:20:45;99039.78;;;16.90;100.00
76126;BME280;65174;48.138;21.002;2023-09-19T02:23:47;99032.94;;;16.89;100.00
76126;BME280;65174;48.138;21.002;2023-09-19T02:26:49;99028.03;;;16.86;100.00
76126;BME280;65174;48.138;21.002;2023-09-19T02:29:51;99030.09;;;16.82;100.00
76126;BME280;65174;48.138;21.002;2023-09-19T02:32:53;99013.94;;;16.79;100.00
76126;BME280;65174;48.138;21.002;2023-09-19T02:35:56;99019.66;;;16.82;100.00
76126;BME280;65174;48.138;21.002;2023-09-19T02:38:59;99014.94;;;16.78;100.00
76126;BME280;65174;48.138;21.002;2023-09-19T02:42:02;99013.88;;;16.71;100.00
76126;BME280;65174;48.138;21.002;2023-09-19T02:45:06;99013.03;;;16.70;100.00
76126;BME280;65174;48.138;21.002;2023-09-19T02:48:08;99000.59;;;16.64;100.00
76126;BME280;65174;48.138;21.002;2023-09-19T02:51:10;98998.28;;;16.61;100.00
76126;BME280;65174;48.138;21.002;2023-09-19T02:54:12;98990.34;;;16.62;100.00
76126;BME280;65174;48.138;21.002;2023-09-19T02:57:15;98981.56;;;16.63;100.00
76126;BME280;65174;48.138;21.002;2023-09-19T03:00:19;98978.94;;;16.63;100.00
76126;BME280;65174;48.138;21.002;2023-09-19T03:03:23;98976.78;;;16.59;100.00
76126;BME280;65174;48.138;21.002;2023-09-19T03:06:26;98972.72;;;16.56;100.00
76126;BME280;65174;48.138;21.002;2023-09-19T03:09:28;98971.88;;;16.56;100.00
76126;BME280;65174;48.138;21.002;2023-09-19T03:12:30;98971.06;;;16.55;100.00
76126;BME280;65174;48.138;21.002;2023-09-19T03:15:33;98966.94;;;16.53;100.00
76126;BME280;65174;48.138;21.002;2023-09-19T03:18:36;98975.44;;;16.55;100.00
76126;BME280;65174;48.138;21.002;2023-09-19T03:21:38;98969.72;;;16.51;100.00
76126;BME280;65174;48.138;21.002;2023-09-19T03:24:40;98969.56;;;16.53;100.00
76126;BME280;65174;48.138;21.002;2023-09-19T03:27:43;98968.88;;;16.51;100.00
76126;BME280;65174;48.138;21.002;2023-09-19T03:30:56;98974.50;;;16.46;100.00
76126;BME280;65174;48.138;21.002;2023-09-19T03:33:58;98963.84;;;16.49;100.00
76126;BME280;65174;48.138;21.002;2023-09-19T03:37:00;98958.63;;;16.49;100.00
76126;BME280;65174;48.138;21.002;2023-09-19T03:40:03;98963.13;;;16.47;100.00
76126;BME280;65174;48.138;21.002;2023-09-19T03:43:07;98968.75;;;16.52;100.00
76126;BME280;65174;48.138;21.002;2023-09-19T03:46:09;98974.75;;;16.53;100.00
76126;BME280;65174;48.138;21.002;2023-09-19T03:49:13;98965.50;;;16.50;100.00
76126;BME280;65174;48.138;21.002;2023-09-19T03:52:15;98964.66;;;16.50;100.00
76126;BME280;65174;48.138;21.002;2023-09-19T03:55:19;98960.94;;;16.52;100.00
76126;BME280;65174;48.138;21.002;2023-09-19T03:58:21;98951.22;;;16.54;100.00
76126;BME280;65174;48.138;21.002;2023-09-19T04:01:23;98954.59;;;16.55;100.00
76126;BME280;65174;48.138;21.002;2023-09-19T04:04:26;98957.53;;;16.52;100.00
76126;BME280;65174;48.138;21.002;2023-09-19T04:07:28;98956.25;;;16.56;100.00
76126;BME280;65174;48.138;21.002;2023-09-19T04:10:30;98958.03;;;16.55;100.00
76126;BME280;65174;48.138;21.002;2023-09-19T04:13:33;98952.00;;;16.55;100.00
76126;BME280;65174;48.138;21.002;2023-09-19T04:16:34;98956.25;;;16.56;100.00
76126;BME280;65174;48.138;21.002;2023-09-19T04:19:37;98954.47;;;16.56;100.00
76126;BME280;65174;48.138;21.002;2023-09-19T04:22:40;98945.69;;;16.57;100.00
76126;BME280;65174;48.138;21.002;2023-09-19T04:25:42;98954.31;;;16.58;100.00
76126;BME280;65174;48.138;21.002;2023-09-19T04:28:45;98947.69;;;16.63;100.00
76126;BME280;65174;48.138;21.002;2023-09-19T04:31:47;98946.91;;;16.63;100.00
76126;BME280;65174;48.138;21.002;2023-09-19T04:34:49;98941.38;;;16.66;100.00
76126;BME280;65174;48.138;21.002;2023-09-19T04:37:51;98936.31;;;16.64;100.00
76126;BME280;65174;48.138;21.002;2023-09-19T04:40:57;98942.88;;;16.68;100.00
76126;BME280;65174;48.138;21.002;2023-09-19T04:44:00;98939.59;;;16.66;100.00
76126;BME280;65174;48.138;21.002;2023-09-19T04:47:02;98940.44;;;16.67;100.00
76126;BME280;65174;48.138;21.002;2023-09-19T04:50:08;98943.16;;;16.65;100.00
76126;BME280;65174;48.138;21.002;2023-09-19T04:53:13;98943.16;;;16.65;100.00
76126;BME280;65174;48.138;21.002;2023-09-19T04:56:15;98938.78;;;16.66;100.00
76126;BME280;65174;48.138;21.002;2023-09-19T04:59:17;98943.81;;;16.67;100.00
76126;BME280;65174;48.138;21.002;2023-09-19T05:02:19;98943.97;;;16.66;100.00
76126;BME280;65174;48.138;21.002;2023-09-19T05:05:21;98947.56;;;16.65;100.00
76126;BME280;65174;48.138;21.002;2023-09-19T05:08:24;98950.69;;;16.68;100.00
76126;BME280;65174;48.138;21.002;2023-09-19T05:11:27;98953.97;;;16.71;100.00
76126;BME280;65174;48.138;21.002;2023-09-19T05:14:29;98958.84;;;16.74;100.00
76126;BME280;65174;48.138;21.002;2023-09-19T05:17:31;98952.69;;;16.75;100.00
76126;BME280;65174;48.138;21.002;2023-09-19T05:20:34;98949.13;;;16.76;100.00
76126;BME280;65174;48.138;21.002;2023-09-19T05:23:37;98943.78;;;16.77;100.00
76126;BME280;65174;48.138;21.002;2023-09-19T05:26:40;98948.81;;;16.79;100.00
76126;BME280;65174;48.138;21.002;2023-09-19T05:29:45;98953.59;;;16.83;100.00
76126;BME280;65174;48.138;21.002;2023-09-19T05:32:47;98945.19;;;16.89;100.00
76126;BME280;65174;48.138;21.002;2023-09-19T05:35:48;98943.00;;;16.85;100.00
76126;BME280;65174;48.138;21.002;2023-09-19T05:38:50;98945.19;;;16.89;100.00
76126;BME280;65174;48.138;21.002;2023-09-19T05:41:54;98949.78;;;16.95;100.00
76126;BME280;65174;48.138;21.002;2023-09-19T05:44:58;98941.81;;;16.97;100.00
76126;BME280;65174;48.138;21.002;2023-09-19T05:48:11;98942.47;;;16.99;100.00
76126;BME280;65174;48.138;21.002;2023-09-19T05:51:15;98937.03;;;17.10;100.00
76126;BME280;65174;48.138;21.002;2023-09-19T05:54:19;98934.19;;;17.21;100.00
76126;BME280;65174;48.138;21.002;2023-09-19T05:57:21;98921.63;;;17.42;100.00
76126;BME280;65174;48.138;21.002;2023-09-19T06:00:25;98921.13;;;17.64;100.00
76126;BME280;65174;48.138;21.002;2023-09-19T06:03:29;98913.34;;;17.72;100.00
76126;BME280;65174;48.138;21.002;2023-09-19T06:06:32;98917.66;;;17.56;100.00
76126;BME280;65174;48.138;21.002;2023-09-19T06:09:35;98918.47;;;17.56;100.00
76126;BME280;65174;48.138;21.002;2023-09-19T06:12:41;98917.59;;;17.73;100.00
76126;BME280;65174;48.138;21.002;2023-09-19T06:15:46;98914.22;;;17.89;100.00
76126;BME280;65174;48.138;21.002;2023-09-19T06:18:51;98921.72;;;18.25;100.00
76126;BME280;65174;48.138;21.002;2023-09-19T06:21:54;98916.03;;;18.30;100.00
76126;BME280;65174;48.138;21.002;2023-09-19T06:24:56;98909.81;;;18.31;100.00
76126;BME280;65174;48.138;21.002;2023-09-19T06:27:59;98910.81;;;18.38;100.00
76126;BME280;65174;48.138;21.002;2023-09-19T06:31:02;98898.47;;;18.56;96.01
76126;BME280;65174;48.138;21.002;2023-09-19T06:34:04;98895.53;;;18.91;94.43
76126;BME280;65174;48.138;21.002;2023-09-19T06:37:06;98900.44;;;19.27;92.55
76126;BME280;65174;48.138;21.002;2023-09-19T06:40:09;98898.59;;;19.51;88.38
76126;BME280;65174;48.138;21.002;2023-09-19T06:43:16;98896.44;;;19.63;89.12
76126;BME280;65174;48.138;21.002;2023-09-19T06:46:18;98898.91;;;19.64;87.11
76126;BME280;65174;48.138;21.002;2023-09-19T06:49:20;98901.50;;;19.56;87.13
76126;BME280;65174;48.138;21.002;2023-09-19T06:52:22;98894.00;;;19.61;86.87
76126;BME280;65174;48.138;21.002;2023-09-19T06:55:25;98885.59;;;19.74;83.80
76126;BME280;65174;48.138;21.002;2023-09-19T06:58:29;98893.47;;;20.05;80.36
76126;BME280;65174;48.138;21.002;2023-09-19T07:01:33;98890.84;;;20.43;79.34
76126;BME280;65174;48.138;21.002;2023-09-19T07:04:35;98878.97;;;20.33;77.77
76126;BME280;65174;48.138;21.002;2023-09-19T07:07:37;98888.63;;;20.32;76.50
76126;BME280;65174;48.138;21.002;2023-09-19T07:10:42;98889.69;;;20.46;77.50
76126;BME280;65174;48.138;21.002;2023-09-19T07:13:51;98893.69;;;20.34;76.89
76126;BME280;65174;48.138;21.002;2023-09-19T07:16:53;98893.28;;;20.45;76.61
76126;BME280;65174;48.138;21.002;2023-09-19T07:19:55;98898.25;;;20.40;76.93
76126;BME280;65174;48.138;21.002;2023-09-19T07:22:57;98901.03;;;20.38;76.60
76126;BME280;65174;48.138;21.002;2023-09-19T07:26:02;98894.16;;;20.37;76.30
76126;BME280;65174;48.138;21.002;2023-09-19T07:29:06;98899.31;;;20.53;77.31
76126;BME280;65174;48.138;21.002;2023-09-19T07:32:10;98902.03;;;20.37;76.42
76126;BME280;65174;48.138;21.002;2023-09-19T07:35:13;98903.91;;;20.51;76.87
76126;BME280;65174;48.138;21.002;2023-09-19T07:38:16;98902.56;;;20.55;77.17
76126;BME280;65174;48.138;21.002;2023-09-19T07:41:19;98909.56;;;20.63;76.66
76126;BME280;65174;48.138;21.002;2023-09-19T07:44:22;98910.91;;;20.82;75.08
76126;BME280;65174;48.138;21.002;2023-09-19T07:47:26;98915.56;;;20.94;75.83
76126;BME280;65174;48.138;21.002;2023-09-19T07:50:29;98919.78;;;20.95;75.62
76126;BME280;65174;48.138;21.002;2023-09-19T07:53:32;98922.16;;;20.90;75.26
76126;BME280;65174;48.138;21.002;2023-09-19T07:56:38;98929.19;;;20.90;74.18
76126;BME280;65174;48.138;21.002;2023-09-19T07:59:40;98916.25;;;20.88;74.03
76126;BME280;65174;48.138;21.002;2023-09-19T08:02:43;98911.88;;;21.03;73.64
76126;BME280;65174;48.138;21.002;2023-09-19T08:05:47;98915.44;;;21.10;73.94
76126;BME280;65174;48.138;21.002;2023-09-19T08:08:53;98923.31;;;21.10;74.65
76126;BME280;65174;48.138;21.002;2023-09-19T08:12:00;98919.00;;;21.17;72.25
76126;BME280;65174;48.138;21.002;2023-09-19T08:15:05;98915.75;;;21.15;72.30
76126;BME280;65174;48.138;21.002;2023-09-19T08:18:09;98912.19;;;21.08;71.40
76126;BME280;65174;48.138;21.002;2023-09-19T08:21:13;98911.94;;;20.95;72.89
76126;BME280;65174;48.138;21.002;2023-09-19T08:24:18;98912.97;;;20.86;72.66
76126;BME280;65174;48.138;21.002;2023-09-19T08:27:20;98910.59;;;20.77;74.03
76126;BME280;65174;48.138;21.002;2023-09-19T08:30:23;98912.97;;;20.86;72.79
76126;BME280;65174;48.138;21.002;2023-09-19T08:33:27;98916.53;;;20.93;72.13
76126;BME280;65174;48.138;21.002;2023-09-19T08:36:29;98912.81;;;20.88;72.95
76126;BME280;65174;48.138;21.002;2023-09-19T08:39:32;98912.53;;;20.83;73.44
76126;BME280;65174;48.138;21.002;2023-09-19T08:42:52;98911.44;;;20.77;74.57
76126;BME280;65174;48.138;21.002;2023-09-19T08:46:03;98908.44;;;20.80;74.60
76126;BME280;65174;48.138;21.002;2023-09-19T08:49:27;98905.47;;;20.83;74.34
76126;BME280;65174;48.138;21.002;2023-09-19T08:52:43;98910.09;;;20.81;74.68
76126;BME280;65174;48.138;21.002;2023-09-19T08:55:46;98907.78;;;20.78;74.24
76126;BME280;65174;48.138;21.002;2023-09-19T08:58:53;98900.63;;;20.72;75.55
76126;BME280;65174;48.138;21.002;2023-09-19T09:01:57;98906.25;;;20.69;76.34
76126;BME280;65174;48.138;21.002;2023-09-19T09:05:00;98902.16;;;20.67;75.62
76126;BME280;65174;48.138;21.002;2023-09-19T09:08:05;98902.97;;;20.67;75.29
76126;BME280;65174;48.138;21.002;2023-09-19T09:11:08;98898.78;;;20.58;77.27
76126;BME280;65174;48.138;21.002;2023-09-19T09:14:10;98897.25;;;20.64;76.32
76126;BME280;65174;48.138;21.002;2023-09-19T09:17:20;98892.50;;;20.67;76.67
76126;BME280;65174;48.138;21.002;2023-09-19T09:20:27;98892.78;;;20.72;76.75
76126;BME280;65174;48.138;21.002;2023-09-19T09:23:30;98887.19;;;20.75;76.47
76126;BME280;65174;48.138;21.002;2023-09-19T09:26:43;98896.84;;;20.75;76.83
76126;BME280;65174;48.138;21.002;2023-09-19T09:30:10;98891.16;;;20.71;76.63
76126;BME280;65174;48.138;21.002;2023-09-19T09:33:58;98898.38;;;20.69;76.44
76126;BME280;65174;48.138;21.002;2023-09-19T09:37:23;98896.91;;;20.67;76.93
76126;BME280;65174;48.138;21.002;2023-09-19T09:40:45;98895.13;;;20.67;77.18
76126;BME280;65174;48.138;21.002;2023-09-19T09:43:49;98890.59;;;20.61;77.70
76126;BME280;65174;48.138;21.002;2023-09-19T09:46:51;98895.00;;;20.61;77.96
76126;BME280;65174;48.138;21.002;2023-09-19T09:49:59;98895.91;;;20.68;78.06
76126;BME280;65174;48.138;21.002;2023-09-19T09:53:27;98896.09;;;20.66;78.87
76126;BME280;65174;48.138;21.002;2023-09-19T09:57:03;98898.38;;;20.69;78.76
76126;BME280;65174;48.138;21.002;2023-09-19T10:00:52;98896.03;;;20.74;79.66
76126;BME280;65174;48.138;21.002;2023-09-19T10:03:59;98899.28;;;20.76;80.00
76126;BME280;65174;48.138;21.002;2023-09-19T10:07:04;98898.78;;;20.81;79.12
76126;BME280;65174;48.138;21.002;2023-09-19T10:10:12;98902.16;;;20.89;79.00
76126;BME280;65174;48.138;21.002;2023-09-19T10:13:14;98900.53;;;20.88;78.55
76126;BME280;65174;48.138;21.002;2023-09-19T10:16:26;98913.47;;;20.90;78.29
76126;BME280;65174;48.138;21.002;2023-09-19T10:19:55;98913.47;;;20.90;78.72
76126;BME280;65174;48.138;21.002;2023-09-19T10:23:08;98916.25;;;20.88;79.09
76126;BME280;65174;48.138;21.002;2023-09-19T10:26:31;98923.38;;;20.80;79.83
76126;BME280;65174;48.138;21.002;2023-09-19T10:29:38;98919.34;;;20.69;80.75
76126;BME280;65174;48.138;21.002;2023-09-19T10:33:05;98925.63;;;20.60;80.09
76126;BME280;65174;48.138;21.002;2023-09-19T10:36:09;98921.53;;;20.57;80.11
76126;BME280;65174;48.138;21.002;2023-09-19T10:39:15;98918.78;;;20.51;80.91
76126;BME280;65174;48.138;21.002;2023-09-19T10:42:29;98925.09;;;20.42;82.29
76126;BME280;65174;48.138;21.002;2023-09-19T10:45:57;98927.22;;;20.38;82.61
76126;BME280;65174;48.138;21.002;2023-09-19T10:49:29;98927.47;;;20.29;82.44
76126;BME280;65174;48.138;21.002;2023-09-19T10:52:59;98927.47;;;20.29;82.73
76126;BME280;65174;48.138;21.002;2023-09-19T10:56:21;98925.53;;;20.15;82.97
76126;BME280;65174;48.138;21.002;2023-09-19T10:59:27;98923.31;;;19.96;85.31
76126;BME280;65174;48.138;21.002;2023-09-19T11:03:16;98935.50;;;19.72;87.76
76126;BME280;65174;48.138;21.002;2023-09-19T11:06:23;98942.41;;;19.57;89.35
76126;BME280;65174;48.138;21.002;2023-09-19T11:09:45;98940.31;;;19.45;91.07
76126;BME280;65174;48.138;21.002;2023-09-19T11:12:48;98952.56;;;19.28;93.57
76126;BME280;65174;48.138;21.002;2023-09-19T11:18:59;98953.38;;;19.13;95.88
76126;BME280;65174;48.138;21.002;2023-09-19T11:22:06;98950.94;;;19.11;96.92
76126;BME280;65174;48.138;21.002;2023-09-19T11:28:42;98952.25;;;18.99;99.56
76126;BME280;65174;48.138;21.002;2023-09-19T11:32:07;98942.56;;;18.83;100.00
76126;BME280;65174;48.138;21.002;2023-09-19T11:35:11;98945.53;;;18.88;100.00
76126;BME280;65174;48.138;21.002;2023-09-19T11:42:47;98948.50;;;19.01;100.00
76126;BME280;65174;48.138;21.002;2023-09-19T11:49:07;98939.81;;;18.85;100.00
76126;BME280;65174;48.138;21.002;2023-09-19T11:52:21;98935.91;;;18.89;100.00
76126;BME280;65174;48.138;21.002;2023-09-19T11:55:28;98944.72;;;18.80;100.00
76126;BME280;65174;48.138;21.002;2023-09-19T11:58:33;98924.47;;;18.82;100.00
76126;BME280;65174;48.138;21.002;2023-09-19T12:01:37;98934.25;;;18.72;100.00
76126;BME280;65174;48.138;21.002;2023-09-19T12:04:45;98939.16;;;18.83;100.00
76126;BME280;65174;48.138;21.002;2023-09-19T12:07:50;98947.00;;;18.99;100.00
76126;BME280;65174;48.138;21.002;2023-09-19T12:10:52;98943.41;;;18.84;100.00
76126;BME280;65174;48.138;21.002;2023-09-19T12:13:55;98949.94;;;19.04;100.00
76126;BME280;65174;48.138;21.002;2023-09-19T12:17:00;98959.25;;;19.07;100.00
76126;BME280;65174;48.138;21.002;2023-09-19T12:20:05;98968.91;;;19.22;100.00
76126;BME280;65174;48.138;21.002;2023-09-19T12:27:06;98978.72;;;19.28;100.00
76126;BME280;65174;48.138;21.002;2023-09-19T12:30:10;98985.91;;;19.18;100.00
76126;BME280;65174;48.138;21.002;2023-09-19T12:33:28;98987.88;;;19.16;100.00
76126;BME280;65174;48.138;21.002;2023-09-19T12:36:30;98995.56;;;19.10;100.00
76126;BME280;65174;48.138;21.002;2023-09-19T12:39:32;99003.69;;;18.98;100.00
76126;BME280;65174;48.138;21.002;2023-09-19T12:42:34;99006.47;;;18.97;100.00
76126;BME280;65174;48.138;21.002;2023-09-19T12:45:37;99013.50;;;18.88;100.00
76126;BME280;65174;48.138;21.002;2023-09-19T12:48:41;99016.59;;;18.84;100.00
76126;BME280;65174;48.138;21.002;2023-09-19T12:51:47;99032.25;;;18.84;100.00
76126;BME280;65174;48.138;21.002;2023-09-19T12:54:50;99029.81;;;18.82;100.00
76126;BME280;65174;48.138;21.002;2023-09-19T12:57:59;99026.66;;;18.71;100.00
76126;BME280;65174;48.138;21.002;2023-09-19T13:01:14;99022.75;;;18.67;100.00
76126;BME280;65174;48.138;21.002;2023-09-19T13:04:20;99019.63;;;18.63;100.00
76126;BME280;65174;48.138;21.002;2023-09-19T13:07:44;99025.16;;;18.60;100.00
76126;BME280;65174;48.138;21.002;2023-09-19T13:11:14;99030.09;;;18.71;100.00
76126;BME280;65174;48.138;21.002;2023-09-19T13:14:24;99033.22;;;18.75;100.00
76126;BME280;65174;48.138;21.002;2023-09-19T13:17:42;99037.72;;;18.49;100.00
76126;BME280;65174;48.138;21.002;2023-09-19T13:21:05;99052.75;;;18.55;100.00
76126;BME280;65174;48.138;21.002;2023-09-19T13:24:24;99068.25;;;18.56;100.00
76126;BME280;65174;48.138;21.002;2023-09-19T13:27:29;99068.72;;;18.52;100.00
76126;BME280;65174;48.138;21.002;2023-09-19T13:30:31;99075.91;;;18.50;100.00
76126;BME280;65174;48.138;21.002;2023-09-19T13:33:34;99081.22;;;18.40;100.00
76126;BME280;65174;48.138;21.002;2023-09-19T13:36:37;99084.00;;;18.39;100.00
76126;BME280;65174;48.138;21.002;2023-09-19T13:39:39;99081.03;;;18.34;100.00
76126;BME280;65174;48.138;21.002;2023-09-19T13:42:49;99086.03;;;18.45;100.00
76126;BME280;65174;48.138;21.002;2023-09-19T13:45:55;99090.25;;;18.46;100.00
76126;BME280;65174;48.138;21.002;2023-09-19T13:48:59;99101.13;;;18.41;100.00
76126;BME280;65174;48.138;21.002;2023-09-19T13:52:01;99103.47;;;18.44;100.00
76126;BME280;65174;48.138;21.002;2023-09-19T13:55:07;99106.91;;;18.45;100.00
76126;BME280;65174;48.138;21.002;2023-09-19T13:58:09;99105.13;;;18.45;100.00
76126;BME280;65174;48.138;21.002;2023-09-19T14:01:13;99108.56;;;18.54;100.00
76126;BME280;65174;48.138;21.002;2023-09-19T14:04:15;99114.50;;;18.56;100.00
76126;BME280;65174;48.138;21.002;2023-09-19T14:07:17;99108.78;;;18.60;100.00
76126;BME280;65174;48.138;21.002;2023-09-19T14:10:22;99107.63;;;18.55;100.00
76126;BME280;65174;48.138;21.002;2023-09-19T14:13:24;99107.63;;;18.55;100.00
76126;BME280;65174;48.138;21.002;2023-09-19T14:16:27;99119.56;;;18.57;100.00
76126;BME280;65174;48.138;21.002;2023-09-19T14:19:33;99120.69;;;18.55;100.00
76126;BME280;65174;48.138;21.002;2023-09-19T14:22:35;99121.59;;;18.46;100.00
76126;BME280;65174;48.138;21.002;2023-09-19T14:25:37;99115.19;;;18.40;100.00
76126;BME280;65174;48.138;21.002;2023-09-19T14:28:40;99127.41;;;18.40;100.00
76126;BME280;65174;48.138;21.002;2023-09-19T14:31:43;99131.31;;;18.36;100.00
76126;BME280;65174;48.138;21.002;2023-09-19T14:34:45;99127.88;;;18.35;100.00
76126;BME280;65174;48.138;21.002;2023-09-19T14:37:47;99141.25;;;18.32;100.00
76126;BME280;65174;48.138;21.002;2023-09-19T14:40:59;99146.63;;;18.31;100.00
76126;BME280;65174;48.138;21.002;2023-09-19T14:44:02;99153.66;;;18.30;100.00
76126;BME280;65174;48.138;21.002;2023-09-19T14:47:04;99148.63;;;18.37;100.00
76126;BME280;65174;48.138;21.002;2023-09-19T14:50:07;99146.53;;;18.40;100.00
76126;BME280;65174;48.138;21.002;2023-09-19T14:53:10;99161.38;;;18.40;100.00
76126;BME280;65174;48.138;21.002;2023-09-19T14:56:14;99159.88;;;18.37;100.00
76126;BME280;65174;48.138;21.002;2023-09-19T14:59:20;99154.97;;;18.34;100.00
76126;BME280;65174;48.138;21.002;2023-09-19T15:02:22;99167.97;;;18.00;100.00
76126;BME280;65174;48.138;21.002;2023-09-19T15:05:24;99171.53;;;17.99;100.00
76126;BME280;65174;48.138;21.002;2023-09-19T15:08:26;99174.66;;;18.03;100.00
76126;BME280;65174;48.138;21.002;2023-09-19T15:11:28;99182.06;;;18.07;100.00
76126;BME280;65174;48.138;21.002;2023-09-19T15:14:30;99170.56;;;18.00;100.00
76126;BME280;65174;48.138;21.002;2023-09-19T15:17:32;99184.72;;;17.98;100.00
76126;BME280;65174;48.138;21.002;2023-09-19T15:20:34;99179.22;;;17.83;100.00
76126;BME280;65174;48.138;21.002;2023-09-19T15:23:37;99168.34;;;17.70;100.00
76126;BME280;65174;48.138;21.002;2023-09-19T15:26:39;99170.81;;;17.72;100.00
76126;BME280;65174;48.138;21.002;2023-09-19T15:29:41;99161.41;;;17.79;100.00
76126;BME280;65174;48.138;21.002;2023-09-19T15:32:43;99165.22;;;17.84;100.00
76126;BME280;65174;48.138;21.002;2023-09-19T15:35:45;99182.78;;;18.00;100.00
76126;BME280;65174;48.138;21.002;2023-09-19T15:39:02;99184.94;;;18.04;100.00
76126;BME280;65174;48.138;21.002;2023-09-19T15:42:05;99195.28;;;18.14;100.00
76126;BME280;65174;48.138;21.002;2023-09-19T15:45:07;99202.47;;;18.12;100.00
76126;BME280;65174;48.138;21.002;2023-09-19T15:48:11;99207.16;;;18.08;100.00
76126;BME280;65174;48.138;21.002;2023-09-19T15:51:13;99207.28;;;17.99;100.00
76126;BME280;65174;48.138;21.002;2023-09-19T15:54:18;99202.34;;;17.96;100.00
76126;BME280;65174;48.138;21.002;2023-09-19T15:57:20;99196.44;;;17.94;100.00
76126;BME280;65174;48.138;21.002;2023-09-19T16:00:22;99204.66;;;17.81;100.00
76126;BME280;65174;48.138;21.002;2023-09-19T16:03:24;99207.94;;;17.66;100.00
76126;BME280;65174;48.138;21.002;2023-09-19T16:06:29;99199.06;;;17.59;100.00
76126;BME280;65174;48.138;21.002;2023-09-19T16:13:25;99194.03;;;17.20;100.00
76126;BME280;65174;48.138;21.002;2023-09-19T16:16:30;99197.31;;;17.22;100.00
76126;BME280;65174;48.138;21.002;2023-09-19T16:19:33;99187.06;;;17.21;100.00
76126;BME280;65174;48.138;21.002;2023-09-19T16:22:35;99189.81;;;17.19;100.00
76126;BME280;65174;48.138;21.002;2023-09-19T16:25:37;99186.66;;;17.16;100.00
76126;BME280;65174;48.138;21.002;2023-09-19T16:28:40;99199.69;;;17.16;100.00
76126;BME280;65174;48.138;21.002;2023-09-19T16:31:43;99199.00;;;17.14;100.00